sensor_id;sensor_type;location;lat;lon;timestamp;pressure;altitude;pressure_sealevel;temperature;humidity
60832;BME280;46665;51.558;-0.448;2023-01-08T00:00:17;99163.06;;;6.10;100.00
60832;BME280;46665;51.558;-0.448;2023-01-08T00:03:01;99150.03;;;6.17;100.00
60832;BME280;46665;51.558;-0.448;2023-01-08T00:05:45;99155.09;;;6.23;100.00
60832;BME280;46665;51.558;-0.448;2023-01-08T00:08:29;99154.56;;;6.21;100.00
60832;BME280;46665;51.558;-0.448;2023-01-08T00:11:14;99144.88;;;6.20;100.00
60832;BME280;46665;51.558;-0.448;2023-01-08T00:13:58;99150.75;;;6.22;100.00
60832;BME280;46665;51.558;-0.448;2023-01-08T00:16:42;99151.00;;;6.26;100.00
60832;BME280;46665;51.558;-0.448;2023-01-08T00:19:26;99151.84;;;6.21;100.00
60832;BME280;46665;51.558;-0.448;2023-01-08T00:22:09;99154.44;;;6.32;100.00
60832;BME280;46665;51.558;-0.448;2023-01-08T00:24:54;99156.03;;;6.33;100.00
60832;BME280;46665;51.558;-0.448;2023-01-08T00:27:37;99155.69;;;6.39;100.00
60832;BME280;46665;51.558;-0.448;2023-01-08T00:30:21;99141.31;;;6.44;100.00
60832;BME280;46665;51.558;-0.448;2023-01-08T00:33:05;99147.25;;;6.46;100.00
60832;BME280;46665;51.558;-0.448;2023-01-08T00:35:49;99154.44;;;6.50;100.00
60832;BME280;46665;51.558;-0.448;2023-01-08T00:38:33;99134.75;;;6.50;100.00
60832;BME280;46665;51.558;-0.448;2023-01-08T00:41:17;99142.50;;;6.57;100.00
60832;BME280;46665;51.558;-0.448;2023-01-08T00:44:01;99131.97;;;6.55;100.00
60832;BME280;46665;51.558;-0.448;2023-01-08T00:46:45;99132.56;;;6.52;100.00
60832;BME280;46665;51.558;-0.448;2023-01-08T00:49:29;99137.16;;;6.51;100.00
60832;BME280;46665;51.558;-0.448;2023-01-08T00:52:13;99120.72;;;6.48;100.00
60832;BME280;46665;51.558;-0.448;2023-01-08T00:54:57;99121.59;;;6.43;100.00
60832;BME280;46665;51.558;-0.448;2023-01-08T00:57:41;99132.97;;;6.40;100.00
60832;BME280;46665;51.558;-0.448;2023-01-08T01:00:25;99119.25;;;6.37;100.00
60832;BME280;46665;51.558;-0.448;2023-01-08T01:03:09;99117.19;;;6.28;100.00
60832;BME280;46665;51.558;-0.448;2023-01-08T01:06:00;99117.94;;;6.34;100.00
60832;BME280;46665;51.558;-0.448;2023-01-08T01:08:45;99114.38;;;6.39;100.00
60832;BME280;46665;51.558;-0.448;2023-01-08T01:11:28;99118.84;;;6.48;100.00
60832;BME280;46665;51.558;-0.448;2023-01-08T01:14:12;99110.06;;;6.57;100.00
60832;BME280;46665;51.558;-0.448;2023-01-08T01:16:56;99122.72;;;6.61;100.00
60832;BME280;46665;51.558;-0.448;2023-01-08T01:19:40;99119.09;;;6.66;100.00
60832;BME280;46665;51.558;-0.448;2023-01-08T01:22:24;99124.22;;;6.67;100.00
60832;BME280;46665;51.558;-0.448;2023-01-08T01:25:08;99114.53;;;6.66;100.00
60832;BME280;46665;51.558;-0.448;2023-01-08T01:27:53;99105.03;;;6.69;100.00
60832;BME280;46665;51.558;-0.448;2023-01-08T01:30:37;99111.50;;;6.68;100.00
60832;BME280;46665;51.558;-0.448;2023-01-08T01:33:20;99101.22;;;6.70;100.00
60832;BME280;46665;51.558;-0.448;2023-01-08T01:36:05;99108.53;;;6.69;100.00
60832;BME280;46665;51.558;-0.448;2023-01-08T01:38:51;99095.75;;;6.75;100.00
60832;BME280;46665;51.558;-0.448;2023-01-08T01:47:28;99099.84;;;6.91;100.00
60832;BME280;46665;51.558;-0.448;2023-01-08T01:50:23;99086.66;;;6.85;100.00
60832;BME280;46665;51.558;-0.448;2023-01-08T01:53:11;99107.41;;;6.70;100.00
60832;BME280;46665;51.558;-0.448;2023-01-08T01:55:58;99101.38;;;6.60;100.00
60832;BME280;46665;51.558;-0.448;2023-01-08T01:58:43;99093.94;;;6.51;100.00
60832;BME280;46665;51.558;-0.448;2023-01-08T02:01:29;99076.09;;;6.50;100.00
60832;BME280;46665;51.558;-0.448;2023-01-08T02:04:13;99086.09;;;6.50;100.00
60832;BME280;46665;51.558;-0.448;2023-01-08T02:07:03;99094.94;;;6.56;100.00
60832;BME280;46665;51.558;-0.448;2023-01-08T02:09:55;99091.94;;;6.57;100.00
60832;BME280;46665;51.558;-0.448;2023-01-08T02:13:00;99096.56;;;6.57;100.00
60832;BME280;46665;51.558;-0.448;2023-01-08T02:16:15;99098.94;;;6.58;100.00
60832;BME280;46665;51.558;-0.448;2023-01-08T02:25:34;99096.16;;;6.63;100.00
60832;BME280;46665;51.558;-0.448;2023-01-08T02:28:21;99104.22;;;6.68;100.00
60832;BME280;46665;51.558;-0.448;2023-01-08T02:31:05;99109.63;;;6.68;100.00
60832;BME280;46665;51.558;-0.448;2023-01-08T02:33:50;99107.50;;;6.65;100.00
60832;BME280;46665;51.558;-0.448;2023-01-08T02:48:35;99106.50;;;6.61;100.00
60832;BME280;46665;51.558;-0.448;2023-01-08T02:51:25;99099.69;;;6.64;100.00
60832;BME280;46665;51.558;-0.448;2023-01-08T02:54:15;99084.03;;;6.61;100.00
60832;BME280;46665;51.558;-0.448;2023-01-08T02:57:12;99087.25;;;6.63;100.00
60832;BME280;46665;51.558;-0.448;2023-01-08T02:59:58;99081.66;;;6.59;100.00
60832;BME280;46665;51.558;-0.448;2023-01-08T03:02:42;99084.44;;;6.54;100.00
60832;BME280;46665;51.558;-0.448;2023-01-08T03:05:27;99086.91;;;6.50;100.00
60832;BME280;46665;51.558;-0.448;2023-01-08T03:08:11;99077.00;;;6.46;100.00
60832;BME280;46665;51.558;-0.448;2023-01-08T03:11:02;99089.47;;;6.42;100.00
60832;BME280;46665;51.558;-0.448;2023-01-08T03:16:58;99090.06;;;6.39;100.00
60832;BME280;46665;51.558;-0.448;2023-01-08T03:19:48;99080.25;;;6.43;100.00
60832;BME280;46665;51.558;-0.448;2023-01-08T03:22:37;99081.63;;;6.40;100.00
60832;BME280;46665;51.558;-0.448;2023-01-08T03:25:23;99089.00;;;6.35;100.00
60832;BME280;46665;51.558;-0.448;2023-01-08T03:28:24;99107.13;;;6.34;100.00
60832;BME280;46665;51.558;-0.448;2023-01-08T03:31:14;99105.81;;;6.32;100.00
60832;BME280;46665;51.558;-0.448;2023-01-08T03:34:00;99112.59;;;6.29;100.00
60832;BME280;46665;51.558;-0.448;2023-01-08T03:36:47;99112.44;;;6.20;100.00
60832;BME280;46665;51.558;-0.448;2023-01-08T03:39:39;99111.69;;;6.15;100.00
60832;BME280;46665;51.558;-0.448;2023-01-08T03:42:25;99113.06;;;6.12;100.00
60832;BME280;46665;51.558;-0.448;2023-01-08T03:45:11;99093.16;;;6.08;100.00
60832;BME280;46665;51.558;-0.448;2023-01-08T03:47:55;99092.63;;;6.06;100.00
60832;BME280;46665;51.558;-0.448;2023-01-08T03:50:40;99089.41;;;6.04;100.00
60832;BME280;46665;51.558;-0.448;2023-01-08T03:53:24;99085.19;;;5.98;100.00
60832;BME280;46665;51.558;-0.448;2023-01-08T03:56:08;99081.44;;;5.94;100.00
60832;BME280;46665;51.558;-0.448;2023-01-08T03:58:52;99079.28;;;5.91;100.00
60832;BME280;46665;51.558;-0.448;2023-01-08T04:01:36;99066.91;;;5.84;100.00
60832;BME280;46665;51.558;-0.448;2023-01-08T04:04:21;99067.22;;;5.83;100.00
60832;BME280;46665;51.558;-0.448;2023-01-08T04:07:06;99069.69;;;5.79;100.00
60832;BME280;46665;51.558;-0.448;2023-01-08T04:09:50;99060.56;;;5.75;100.00
60832;BME280;46665;51.558;-0.448;2023-01-08T04:12:34;99068.94;;;5.74;100.00
60832;BME280;46665;51.558;-0.448;2023-01-08T04:15:18;99060.91;;;5.69;100.00
60832;BME280;46665;51.558;-0.448;2023-01-08T04:18:02;99057.69;;;5.67;100.00
60832;BME280;46665;51.558;-0.448;2023-01-08T04:20:47;99041.28;;;5.63;100.00
60832;BME280;46665;51.558;-0.448;2023-01-08T04:23:31;99052.00;;;5.68;100.00
60832;BME280;46665;51.558;-0.448;2023-01-08T04:26:15;99047.41;;;5.69;100.00
60832;BME280;46665;51.558;-0.448;2023-01-08T04:29:04;99045.00;;;5.67;100.00
60832;BME280;46665;51.558;-0.448;2023-01-08T04:31:48;99047.69;;;5.67;100.00
60832;BME280;46665;51.558;-0.448;2023-01-08T04:34:32;99045.50;;;5.69;100.00
60832;BME280;46665;51.558;-0.448;2023-01-08T04:37:17;99046.31;;;5.70;100.00
60832;BME280;46665;51.558;-0.448;2023-01-08T04:40:01;99045.97;;;5.76;100.00
60832;BME280;46665;51.558;-0.448;2023-01-08T04:42:44;99058.09;;;5.79;100.00
60832;BME280;46665;51.558;-0.448;2023-01-08T04:45:29;99048.91;;;5.80;100.00
60832;BME280;46665;51.558;-0.448;2023-01-08T04:48:12;99044.31;;;5.80;100.00
60832;BME280;46665;51.558;-0.448;2023-01-08T04:51:01;99037.00;;;5.81;100.00
60832;BME280;46665;51.558;-0.448;2023-01-08T04:53:45;99046.16;;;5.85;100.00
60832;BME280;46665;51.558;-0.448;2023-01-08T04:56:29;99031.03;;;5.84;100.00
60832;BME280;46665;51.558;-0.448;2023-01-08T04:59:14;99034.03;;;5.82;100.00
60832;BME280;46665;51.558;-0.448;2023-01-08T05:01:58;99042.13;;;5.82;100.00
60832;BME280;46665;51.558;-0.448;2023-01-08T05:04:42;99040.50;;;5.81;100.00
60832;BME280;46665;51.558;-0.448;2023-01-08T05:07:26;99034.31;;;5.81;100.00
60832;BME280;46665;51.558;-0.448;2023-01-08T05:10:10;99024.63;;;5.80;100.00
60832;BME280;46665;51.558;-0.448;2023-01-08T05:13:00;99028.19;;;5.75;100.00
60832;BME280;46665;51.558;-0.448;2023-01-08T05:15:44;99024.97;;;5.73;100.00
60832;BME280;46665;51.558;-0.448;2023-01-08T05:18:29;99017.44;;;5.70;100.00
60832;BME280;46665;51.558;-0.448;2023-01-08T05:21:13;99014.16;;;5.73;100.00
60832;BME280;46665;51.558;-0.448;2023-01-08T05:23:57;99008.25;;;5.71;100.00
60832;BME280;46665;51.558;-0.448;2023-01-08T05:26:41;99003.44;;;5.68;100.00
60832;BME280;46665;51.558;-0.448;2023-01-08T05:29:25;99002.91;;;5.66;100.00
60832;BME280;46665;51.558;-0.448;2023-01-08T05:32:16;98994.88;;;5.61;100.00
60832;BME280;46665;51.558;-0.448;2023-01-08T05:35:00;99001.94;;;5.57;100.00
60832;BME280;46665;51.558;-0.448;2023-01-08T05:37:44;98999.28;;;5.52;100.00
60832;BME280;46665;51.558;-0.448;2023-01-08T05:40:28;98997.97;;;5.49;100.00
60832;BME280;46665;51.558;-0.448;2023-01-08T05:43:12;98999.59;;;5.50;100.00
60832;BME280;46665;51.558;-0.448;2023-01-08T05:45:58;98995.81;;;5.51;100.00
60832;BME280;46665;51.558;-0.448;2023-01-08T05:48:42;98989.38;;;5.47;100.00
60832;BME280;46665;51.558;-0.448;2023-01-08T05:51:26;98995.28;;;5.49;100.00
60832;BME280;46665;51.558;-0.448;2023-01-08T05:54:10;98991.50;;;5.50;100.00
60832;BME280;46665;51.558;-0.448;2023-01-08T05:56:54;98993.09;;;5.51;100.00
60832;BME280;46665;51.558;-0.448;2023-01-08T05:59:38;98996.53;;;5.57;100.00
60832;BME280;46665;51.558;-0.448;2023-01-08T06:02:22;98997.63;;;5.56;100.00
60832;BME280;46665;51.558;-0.448;2023-01-08T06:05:06;99003.56;;;5.58;100.00
60832;BME280;46665;51.558;-0.448;2023-01-08T06:07:50;99001.94;;;5.57;100.00
60832;BME280;46665;51.558;-0.448;2023-01-08T06:10:36;99011.88;;;5.61;100.00
60832;BME280;46665;51.558;-0.448;2023-01-08T06:13:20;99003.25;;;5.59;100.00
60832;BME280;46665;51.558;-0.448;2023-01-08T06:16:04;99004.09;;;5.60;100.00
60832;BME280;46665;51.558;-0.448;2023-01-08T06:18:49;98994.66;;;5.57;100.00
60832;BME280;46665;51.558;-0.448;2023-01-08T06:21:32;98995.22;;;5.54;100.00
60832;BME280;46665;51.558;-0.448;2023-01-08T06:24:16;98999.81;;;5.54;100.00
60832;BME280;46665;51.558;-0.448;2023-01-08T06:27:00;98994.16;;;5.55;100.00
60832;BME280;46665;51.558;-0.448;2023-01-08T06:29:44;98994.16;;;5.55;100.00
60832;BME280;46665;51.558;-0.448;2023-01-08T06:32:28;98984.22;;;5.51;100.00
60832;BME280;46665;51.558;-0.448;2023-01-08T06:35:12;98978.34;;;5.43;100.00
60832;BME280;46665;51.558;-0.448;2023-01-08T06:37:56;98971.88;;;5.45;100.00
60832;BME280;46665;51.558;-0.448;2023-01-08T06:40:40;98976.75;;;5.42;100.00
60832;BME280;46665;51.558;-0.448;2023-01-08T06:43:24;98978.94;;;5.40;100.00
60832;BME280;46665;51.558;-0.448;2023-01-08T06:46:09;98971.44;;;5.37;100.00
60832;BME280;46665;51.558;-0.448;2023-01-08T06:48:53;98970.31;;;5.38;100.00
60832;BME280;46665;51.558;-0.448;2023-01-08T06:51:37;98979.78;;;5.36;100.00
60832;BME280;46665;51.558;-0.448;2023-01-08T06:54:21;98981.91;;;5.39;100.00
60832;BME280;46665;51.558;-0.448;2023-01-08T06:57:05;98985.19;;;5.36;100.00
60832;BME280;46665;51.558;-0.448;2023-01-08T06:59:49;98974.69;;;5.34;100.00
60832;BME280;46665;51.558;-0.448;2023-01-08T07:02:33;98974.69;;;5.34;100.00
60832;BME280;46665;51.558;-0.448;2023-01-08T07:05:17;98974.44;;;5.31;100.00
60832;BME280;46665;51.558;-0.448;2023-01-08T07:08:00;98976.13;;;5.27;100.00
60832;BME280;46665;51.558;-0.448;2023-01-08T07:10:45;98972.91;;;5.25;100.00
60832;BME280;46665;51.558;-0.448;2023-01-08T07:13:28;98963.78;;;5.20;100.00
60832;BME280;46665;51.558;-0.448;2023-01-08T07:16:13;98974.28;;;5.22;100.00
60832;BME280;46665;51.558;-0.448;2023-01-08T07:18:58;98982.03;;;5.29;100.00
60832;BME280;46665;51.558;-0.448;2023-01-08T07:21:42;98974.97;;;5.33;100.00
60832;BME280;46665;51.558;-0.448;2023-01-08T07:24:26;98973.59;;;5.35;100.00
60832;BME280;46665;51.558;-0.448;2023-01-08T07:27:10;98972.75;;;5.40;100.00
60832;BME280;46665;51.558;-0.448;2023-01-08T07:29:54;98965.97;;;5.42;100.00
60832;BME280;46665;51.558;-0.448;2023-01-08T07:32:38;98958.41;;;5.45;100.00
60832;BME280;46665;51.558;-0.448;2023-01-08T07:35:22;98957.81;;;5.48;100.00
60832;BME280;46665;51.558;-0.448;2023-01-08T07:38:06;98945.34;;;5.52;100.00
60832;BME280;46665;51.558;-0.448;2023-01-08T07:40:50;98954.19;;;5.57;100.00
60832;BME280;46665;51.558;-0.448;2023-01-08T07:43:34;98946.53;;;5.64;100.00
60832;BME280;46665;51.558;-0.448;2023-01-08T07:46:18;98949.53;;;5.63;100.00
60832;BME280;46665;51.558;-0.448;2023-01-08T07:49:02;98947.91;;;5.62;100.00
60832;BME280;46665;51.558;-0.448;2023-01-08T07:51:48;98948.16;;;5.65;100.00
60832;BME280;46665;51.558;-0.448;2023-01-08T07:54:32;98950.13;;;5.60;100.00
60832;BME280;46665;51.558;-0.448;2023-01-08T07:57:16;98945.00;;;5.58;100.00
60832;BME280;46665;51.558;-0.448;2023-01-08T08:00:00;98941.56;;;5.53;100.00
60832;BME280;46665;51.558;-0.448;2023-01-08T08:02:44;98943.75;;;5.51;100.00
60832;BME280;46665;51.558;-0.448;2023-01-08T08:05:28;98936.75;;;5.50;100.00
60832;BME280;46665;51.558;-0.448;2023-01-08T08:08:12;98942.16;;;5.50;100.00
60832;BME280;46665;51.558;-0.448;2023-01-08T08:10:57;98942.44;;;5.48;100.00
60832;BME280;46665;51.558;-0.448;2023-01-08T08:13:41;98929.72;;;5.49;100.00
60832;BME280;46665;51.558;-0.448;2023-01-08T08:16:27;98922.75;;;5.48;100.00
60832;BME280;46665;51.558;-0.448;2023-01-08T08:19:11;98918.41;;;5.47;100.00
60832;BME280;46665;51.558;-0.448;2023-01-08T08:21:55;98915.97;;;5.50;100.00
60832;BME280;46665;51.558;-0.448;2023-01-08T08:24:39;98911.94;;;5.48;100.00
60832;BME280;46665;51.558;-0.448;2023-01-08T08:27:23;98916.03;;;5.45;100.00
60832;BME280;46665;51.558;-0.448;2023-01-08T08:30:08;98909.31;;;5.42;100.00
60832;BME280;46665;51.558;-0.448;2023-01-08T08:32:53;98906.56;;;5.48;100.00
60832;BME280;46665;51.558;-0.448;2023-01-08T08:35:37;98900.56;;;5.51;100.00
60832;BME280;46665;51.558;-0.448;2023-01-08T08:38:21;98907.88;;;5.50;100.00
60832;BME280;46665;51.558;-0.448;2023-01-08T08:41:05;98887.28;;;5.54;100.00
60832;BME280;46665;51.558;-0.448;2023-01-08T08:43:50;98891.03;;;5.58;100.00
60832;BME280;46665;51.558;-0.448;2023-01-08T08:46:34;98892.06;;;5.62;100.00
60832;BME280;46665;51.558;-0.448;2023-01-08T08:49:18;98874.50;;;5.65;100.00
60832;BME280;46665;51.558;-0.448;2023-01-08T08:52:03;98873.59;;;5.70;100.00
60832;BME280;46665;51.558;-0.448;2023-01-08T08:54:47;98880.81;;;5.74;100.00
60832;BME280;46665;51.558;-0.448;2023-01-08T08:57:31;98867.25;;;5.79;100.00
60832;BME280;46665;51.558;-0.448;2023-01-08T09:00:15;98868.72;;;5.91;100.00
60832;BME280;46665;51.558;-0.448;2023-01-08T09:02:59;98865.28;;;6.04;100.00
60832;BME280;46665;51.558;-0.448;2023-01-08T09:05:44;98867.31;;;6.12;100.00
60832;BME280;46665;51.558;-0.448;2023-01-08T09:08:28;98865.03;;;6.19;100.00
60832;BME280;46665;51.558;-0.448;2023-01-08T09:11:12;98856.25;;;6.27;100.00
60832;BME280;46665;51.558;-0.448;2023-01-08T09:13:55;98855.00;;;6.39;100.00
60832;BME280;46665;51.558;-0.448;2023-01-08T09:16:40;98841.41;;;6.44;100.00
60832;BME280;46665;51.558;-0.448;2023-01-08T09:19:23;98843.59;;;6.56;100.00
60832;BME280;46665;51.558;-0.448;2023-01-08T09:22:08;98844.81;;;6.63;100.00
60832;BME280;46665;51.558;-0.448;2023-01-08T09:24:51;98835.53;;;6.69;100.00
60832;BME280;46665;51.558;-0.448;2023-01-08T09:27:37;98836.13;;;6.66;100.00
60832;BME280;46665;51.558;-0.448;2023-01-08T09:30:21;98820.72;;;6.67;100.00
60832;BME280;46665;51.558;-0.448;2023-01-08T09:33:05;98824.00;;;6.64;100.00
60832;BME280;46665;51.558;-0.448;2023-01-08T09:35:49;98816.47;;;6.61;100.00
60832;BME280;46665;51.558;-0.448;2023-01-08T09:38:34;98819.78;;;6.58;100.00
60832;BME280;46665;51.558;-0.448;2023-01-08T09:41:19;98819.28;;;6.56;100.00
60832;BME280;46665;51.558;-0.448;2023-01-08T09:44:05;98819.38;;;6.50;100.00
60832;BME280;46665;51.558;-0.448;2023-01-08T09:46:49;98818.91;;;6.48;100.00
60832;BME280;46665;51.558;-0.448;2023-01-08T09:49:42;98815.28;;;6.53;100.00
60832;BME280;46665;51.558;-0.448;2023-01-08T09:52:28;98812.78;;;6.57;100.00
60832;BME280;46665;51.558;-0.448;2023-01-08T09:55:15;98805.47;;;6.57;100.00
60832;BME280;46665;51.558;-0.448;2023-01-08T09:57:59;98811.16;;;6.56;100.00
60832;BME280;46665;51.558;-0.448;2023-01-08T10:00:43;98812.47;;;6.58;100.00
60832;BME280;46665;51.558;-0.448;2023-01-08T10:06:22;98813.50;;;6.62;100.00
60832;BME280;46665;51.558;-0.448;2023-01-08T10:09:11;98812.09;;;6.65;100.00
60832;BME280;46665;51.558;-0.448;2023-01-08T10:12:00;98807.38;;;6.70;100.00
60832;BME280;46665;51.558;-0.448;2023-01-08T10:14:45;98807.59;;;6.74;100.00
60832;BME280;46665;51.558;-0.448;2023-01-08T10:20:34;98813.69;;;6.66;100.00
60832;BME280;46665;51.558;-0.448;2023-01-08T10:23:20;98814.38;;;6.58;100.00
60832;BME280;46665;51.558;-0.448;2023-01-08T10:26:05;98812.56;;;6.53;100.00
60832;BME280;46665;51.558;-0.448;2023-01-08T10:28:49;98800.06;;;6.43;100.00
60832;BME280;46665;51.558;-0.448;2023-01-08T10:31:42;98799.44;;;6.33;100.00
60832;BME280;46665;51.558;-0.448;2023-01-08T10:34:38;98795.84;;;6.23;100.00
60832;BME280;46665;51.558;-0.448;2023-01-08T10:37:30;98793.94;;;6.24;100.00
60832;BME280;46665;51.558;-0.448;2023-01-08T10:40:37;98781.13;;;6.16;100.00
60832;BME280;46665;51.558;-0.448;2023-01-08T10:43:26;98780.91;;;6.12;100.00
60832;BME280;46665;51.558;-0.448;2023-01-08T10:46:52;98789.88;;;6.07;100.00
60832;BME280;46665;51.558;-0.448;2023-01-08T10:49:38;98765.38;;;6.04;100.00
60832;BME280;46665;51.558;-0.448;2023-01-08T10:52:30;98748.69;;;6.02;100.00
60832;BME280;46665;51.558;-0.448;2023-01-08T10:55:36;98763.78;;;6.03;100.00
60832;BME280;46665;51.558;-0.448;2023-01-08T10:58:21;98758.69;;;6.01;100.00
60832;BME280;46665;51.558;-0.448;2023-01-08T11:01:19;98745.97;;;6.02;100.00
60832;BME280;46665;51.558;-0.448;2023-01-08T11:04:05;98740.56;;;6.02;100.00
60832;BME280;46665;51.558;-0.448;2023-01-08T11:06:49;98727.41;;;6.00;100.00
60832;BME280;46665;51.558;-0.448;2023-01-08T11:09:47;98732.19;;;6.03;100.00
60832;BME280;46665;51.558;-0.448;2023-01-08T11:12:39;98722.47;;;6.02;100.00
60832;BME280;46665;51.558;-0.448;2023-01-08T11:15:42;98715.47;;;6.01;100.00
60832;BME280;46665;51.558;-0.448;2023-01-08T11:18:27;98710.28;;;6.05;100.00
60832;BME280;46665;51.558;-0.448;2023-01-08T11:21:26;98709.78;;;6.03;100.00
60832;BME280;46665;51.558;-0.448;2023-01-08T11:27:08;98722.19;;;6.04;100.00
60832;BME280;46665;51.558;-0.448;2023-01-08T11:30:12;98708.41;;;6.05;100.00
60832;BME280;46665;51.558;-0.448;2023-01-08T11:33:12;98710.78;;;6.07;100.00
60832;BME280;46665;51.558;-0.448;2023-01-08T11:36:10;98706.50;;;6.06;100.00
60832;BME280;46665;51.558;-0.448;2023-01-08T11:38:56;98690.56;;;6.04;100.00
60832;BME280;46665;51.558;-0.448;2023-01-08T11:41:49;98673.59;;;6.04;100.00
60832;BME280;46665;51.558;-0.448;2023-01-08T11:48:21;98678.13;;;5.90;100.00
60832;BME280;46665;51.558;-0.448;2023-01-08T11:51:23;98678.22;;;5.84;100.00
60832;BME280;46665;51.558;-0.448;2023-01-08T12:03:24;98654.19;;;5.55;100.00
60832;BME280;46665;51.558;-0.448;2023-01-08T12:13:03;98638.78;;;5.42;100.00
60832;BME280;46665;51.558;-0.448;2023-01-08T12:15:31;98639.34;;;5.39;100.00
60832;BME280;46665;51.558;-0.448;2023-01-08T12:35:17;98567.81;;;5.41;100.00
60832;BME280;46665;51.558;-0.448;2023-01-08T12:37:56;98556.38;;;5.63;100.00
60832;BME280;46665;51.558;-0.448;2023-01-08T12:40:47;98544.28;;;5.89;100.00
60832;BME280;46665;51.558;-0.448;2023-01-08T12:46:41;98543.47;;;5.88;100.00
60832;BME280;46665;51.558;-0.448;2023-01-08T12:49:35;98538.47;;;5.81;100.00
60832;BME280;46665;51.558;-0.448;2023-01-08T12:52:54;98532.78;;;5.83;100.00
60832;BME280;46665;51.558;-0.448;2023-01-08T12:56:03;98534.38;;;5.84;100.00
60832;BME280;46665;51.558;-0.448;2023-01-08T12:59:27;98524.06;;;5.86;100.00
60832;BME280;46665;51.558;-0.448;2023-01-08T13:05:33;98509.47;;;5.87;100.00
60832;BME280;46665;51.558;-0.448;2023-01-08T13:08:29;98504.28;;;5.91;100.00
60832;BME280;46665;51.558;-0.448;2023-01-08T13:11:30;98494.28;;;5.91;100.00
60832;BME280;46665;51.558;-0.448;2023-01-08T13:14:15;98484.81;;;5.94;100.00
60832;BME280;46665;51.558;-0.448;2023-01-08T13:17:06;98477.78;;;5.93;100.00
60832;BME280;46665;51.558;-0.448;2023-01-08T13:20:03;98488.81;;;5.96;100.00
60832;BME280;46665;51.558;-0.448;2023-01-08T13:23:20;98472.00;;;5.99;100.00
60832;BME280;46665;51.558;-0.448;2023-01-08T13:26:06;98484.09;;;6.02;100.00
60832;BME280;46665;51.558;-0.448;2023-01-08T13:28:50;98474.91;;;6.03;100.00
60832;BME280;46665;51.558;-0.448;2023-01-08T13:31:38;98464.56;;;6.05;100.00
60832;BME280;46665;51.558;-0.448;2023-01-08T13:34:38;98459.16;;;6.05;100.00
60832;BME280;46665;51.558;-0.448;2023-01-08T13:37:24;98440.97;;;6.11;100.00
60832;BME280;46665;51.558;-0.448;2023-01-08T13:43:34;98450.16;;;6.10;100.00
60832;BME280;46665;51.558;-0.448;2023-01-08T13:46:19;98450.38;;;6.13;100.00
60832;BME280;46665;51.558;-0.448;2023-01-08T13:49:06;98451.44;;;6.12;100.00
60832;BME280;46665;51.558;-0.448;2023-01-08T13:51:51;98454.78;;;6.09;100.00
60832;BME280;46665;51.558;-0.448;2023-01-08T13:54:39;98474.78;;;6.08;100.00
60832;BME280;46665;51.558;-0.448;2023-01-08T13:57:33;98471.72;;;5.73;100.00
60832;BME280;46665;51.558;-0.448;2023-01-08T14:06:20;98427.09;;;5.39;100.00
60832;BME280;46665;51.558;-0.448;2023-01-08T14:09:12;98429.47;;;5.41;100.00
60832;BME280;46665;51.558;-0.448;2023-01-08T14:11:58;98423.47;;;5.44;100.00
60832;BME280;46665;51.558;-0.448;2023-01-08T14:14:47;98420.38;;;5.51;100.00
60832;BME280;46665;51.558;-0.448;2023-01-08T14:17:32;98420.47;;;5.59;100.00
60832;BME280;46665;51.558;-0.448;2023-01-08T14:20:26;98414.66;;;5.66;100.00
60832;BME280;46665;51.558;-0.448;2023-01-08T14:23:26;98413.75;;;5.71;100.00
60832;BME280;46665;51.558;-0.448;2023-01-08T14:26:30;98403.63;;;5.76;100.00
60832;BME280;46665;51.558;-0.448;2023-01-08T14:29:19;98401.44;;;5.78;100.00
60832;BME280;46665;51.558;-0.448;2023-01-08T14:32:15;98403.13;;;5.74;100.00
60832;BME280;46665;51.558;-0.448;2023-01-08T14:34:59;98408.25;;;5.76;100.00
60832;BME280;46665;51.558;-0.448;2023-01-08T14:37:44;98398.34;;;5.71;100.00
60832;BME280;46665;51.558;-0.448;2023-01-08T14:40:31;98408.47;;;5.65;100.00
60832;BME280;46665;51.558;-0.448;2023-01-08T14:43:17;98402.69;;;5.58;100.00
60832;BME280;46665;51.558;-0.448;2023-01-08T14:46:19;98403.59;;;5.54;100.00
60832;BME280;46665;51.558;-0.448;2023-01-08T14:49:04;98407.69;;;5.51;100.00
60832;BME280;46665;51.558;-0.448;2023-01-08T14:51:49;98400.88;;;5.54;100.00
60832;BME280;46665;51.558;-0.448;2023-01-08T14:54:34;98386.09;;;5.51;100.00
60832;BME280;46665;51.558;-0.448;2023-01-08T14:57:19;98399.81;;;5.55;100.00
60832;BME280;46665;51.558;-0.448;2023-01-08T15:00:03;98385.94;;;5.48;100.00
60832;BME280;46665;51.558;-0.448;2023-01-08T15:02:48;98388.31;;;5.49;100.00
60832;BME280;46665;51.558;-0.448;2023-01-08T15:05:32;98385.13;;;5.47;100.00
60832;BME280;46665;51.558;-0.448;2023-01-08T15:14:11;98369.84;;;5.42;100.00
60832;BME280;46665;51.558;-0.448;2023-01-08T15:16:58;98375.53;;;5.41;100.00
60832;BME280;46665;51.558;-0.448;2023-01-08T15:19:52;98365.66;;;5.36;100.00
60832;BME280;46665;51.558;-0.448;2023-01-08T15:22:37;98375.34;;;5.37;100.00
60832;BME280;46665;51.558;-0.448;2023-01-08T15:25:25;98373.25;;;5.34;100.00
60832;BME280;46665;51.558;-0.448;2023-01-08T15:28:12;98376.06;;;5.29;100.00
60832;BME280;46665;51.558;-0.448;2023-01-08T15:30:57;98377.66;;;5.30;100.00
60832;BME280;46665;51.558;-0.448;2023-01-08T15:33:43;98373.75;;;5.22;100.00
60832;BME280;46665;51.558;-0.448;2023-01-08T15:36:27;98374.56;;;5.23;100.00
60832;BME280;46665;51.558;-0.448;2023-01-08T15:39:11;98367.75;;;5.26;100.00
60832;BME280;46665;51.558;-0.448;2023-01-08T15:41:59;98368.16;;;5.19;100.00
60832;BME280;46665;51.558;-0.448;2023-01-08T15:45:12;98367.06;;;5.20;100.00
60832;BME280;46665;51.558;-0.448;2023-01-08T15:47:57;98376.56;;;5.17;100.00
60832;BME280;46665;51.558;-0.448;2023-01-08T15:50:43;98375.88;;;5.12;100.00
60832;BME280;46665;51.558;-0.448;2023-01-08T15:53:27;98374.66;;;5.18;100.00
60832;BME280;46665;51.558;-0.448;2023-01-08T15:56:11;98376.97;;;5.11;100.00
60832;BME280;46665;51.558;-0.448;2023-01-08T15:58:55;98379.38;;;5.12;100.00
60832;BME280;46665;51.558;-0.448;2023-01-08T16:01:39;98386.06;;;5.15;100.00
60832;BME280;46665;51.558;-0.448;2023-01-08T16:04:23;98381.28;;;5.12;100.00
60832;BME280;46665;51.558;-0.448;2023-01-08T16:07:07;98371.06;;;5.09;100.00